Time;durP1;ratioP1;P1;durP2;ratioP2;P2;SDS_P1;SDS_P2;PMS_P1;PMS_P2;Temp;Humidity;BMP_temperature;BMP_pressure;BME280_temperature;BME280_humidity;BME280_pressure;Samples;Min_cycle;Max_cycle;Signal;HPM_P1;HPM_P2
2024/03/21 00:01:11;;;;;;;4.38;3.95;;;18.00;82.70;;;;;;4157924;28;20075;-55
2024/03/21 00:03:52;;;;;;;6.15;3.85;;;18.00;82.70;;;;;;4165344;28;20538;-52
2024/03/21 00:06:32;;;;;;;6.53;4.28;;;17.90;82.80;;;;;;4171179;28;20056;-53
2024/03/21 00:09:12;;;;;;;4.45;4.05;;;17.90;82.90;;;;;;4156286;28;20398;-52
2024/03/21 00:11:51;;;;;;;5.88;4.30;;;17.90;83.10;;;;;;4184007;28;20055;-51
2024/03/21 00:14:31;;;;;;;7.82;4.90;;;17.90;83.10;;;;;;4162542;28;20083;-50
2024/03/21 00:17:10;;;;;;;5.18;4.60;;;17.90;83.10;;;;;;4172678;28;20503;-55
2024/03/21 00:19:50;;;;;;;7.18;4.20;;;17.90;83.10;;;;;;4182769;28;20099;-52
2024/03/21 00:22:31;;;;;;;6.93;5.05;;;17.90;83.20;;;;;;4161280;28;20083;-53
2024/03/21 00:25:11;;;;;;;7.25;4.40;;;17.90;83.20;;;;;;4170916;28;20854;-53
2024/03/21 00:27:51;;;;;;;6.20;4.83;;;17.90;83.20;;;;;;4128228;28;20145;-54
2024/03/21 00:30:31;;;;;;;5.95;4.72;;;17.80;83.10;;;;;;4137679;28;20323;-53
2024/03/21 00:33:10;;;;;;;6.00;5.05;;;17.80;83.20;;;;;;4141543;28;20053;-52
2024/03/21 00:35:51;;;;;;;5.32;4.85;;;17.80;83.40;;;;;;4156457;28;20052;-54
2024/03/21 00:38:32;;;;;;;5.47;4.40;;;17.70;83.60;;;;;;4153131;28;20627;-54
2024/03/21 00:41:11;;;;;;;8.75;5.28;;;17.70;83.70;;;;;;4153674;28;20056;-52
2024/03/21 00:43:51;;;;;;;6.80;4.82;;;17.70;83.90;;;;;;4152627;28;20057;-52
2024/03/21 00:46:30;;;;;;;9.75;5.10;;;17.70;84.10;;;;;;4154446;28;20060;-51
2024/03/21 00:49:11;;;;;;;5.07;4.57;;;17.70;84.30;;;;;;4154731;28;20064;-51
2024/03/21 00:51:50;;;;;;;5.18;4.20;;;17.70;84.30;;;;;;4154249;28;20137;-53
2024/03/21 00:54:32;;;;;;;7.50;4.75;;;17.70;84.30;;;;;;4154632;28;20060;-54
2024/03/21 00:57:12;;;;;;;9.57;5.45;;;17.70;84.20;;;;;;4161373;28;20060;-55
2024/03/21 00:59:52;;;;;;;8.18;4.65;;;17.80;84.00;;;;;;4169043;28;20060;-54
2024/03/21 01:02:31;;;;;;;7.75;5.60;;;17.80;83.90;;;;;;4156864;28;20057;-55
2024/03/21 01:05:13;;;;;;;7.32;4.38;;;17.90;83.60;;;;;;4171573;28;20136;-54
2024/03/21 01:07:52;;;;;;;9.05;5.13;;;17.80;83.40;;;;;;4145371;28;20064;-55
2024/03/21 01:10:33;;;;;;;8.93;5.07;;;17.80;83.40;;;;;;4171515;28;20051;-53
2024/03/21 01:13:12;;;;;;;4.97;4.47;;;17.80;83.50;;;;;;4155533;28;20049;-54
2024/03/21 01:15:53;;;;;;;8.20;5.20;;;17.80;83.40;;;;;;4154369;28;20080;-51
2024/03/21 01:18:35;;;;;;;6.65;5.15;;;17.80;83.60;;;;;;4154589;28;20057;-51
2024/03/21 01:21:16;;;;;;;;;;;17.80;83.70;;;;;;4171025;28;20044;-53
2024/03/21 01:23:55;;;;;;;6.53;4.68;;;17.70;83.70;;;;;;4169269;28;20723;-53
2024/03/21 01:26:37;;;;;;;8.73;5.95;;;17.70;83.90;;;;;;4170290;28;20056;-53
2024/03/21 01:29:17;;;;;;;9.18;5.00;;;17.60;84.00;;;;;;4168120;28;20126;-52
2024/03/21 01:31:56;;;;;;;8.20;5.57;;;17.60;84.10;;;;;;4168613;28;20060;-51
2024/03/21 01:34:36;;;;;;;8.05;5.90;;;17.60;84.20;;;;;;4152793;28;20136;-53
2024/03/21 01:37:15;;;;;;;6.07;5.45;;;17.60;84.30;;;;;;4161591;28;20055;-51
2024/03/21 01:39:56;;;;;;;6.75;6.05;;;17.50;84.30;;;;;;4165301;28;20147;-52
2024/03/21 01:42:37;;;;;;;10.38;6.57;;;17.50;84.40;;;;;;4154669;28;20125;-53
2024/03/21 01:45:18;;;;;;;8.02;6.88;;;17.50;84.50;;;;;;4141822;28;20065;-53
2024/03/21 01:47:58;;;;;;;7.65;6.70;;;17.50;84.70;;;;;;4145231;28;20506;-54
2024/03/21 01:50:42;;;;;;;7.32;6.00;;;17.50;85.00;;;;;;4153626;28;20136;-51
2024/03/21 01:53:22;;;;;;;10.32;6.68;;;17.50;85.00;;;;;;4153695;28;20107;-54
2024/03/21 01:56:02;;;;;;;9.52;6.90;;;17.50;84.80;;;;;;4153757;28;20060;-52
2024/03/21 01:58:44;;;;;;;6.90;6.03;;;17.60;84.70;;;;;;4158011;28;20638;-52
2024/03/21 02:01:25;;;;;;;10.23;7.28;;;17.60;84.50;;;;;;4153286;28;20079;-51
2024/03/21 02:04:06;;;;;;;9.43;7.07;;;17.60;85.30;;;;;;4170134;28;20064;-54
2024/03/21 02:06:45;;;;;;;6.75;6.03;;;17.60;84.20;;;;;;4158434;28;20066;-54
2024/03/21 02:09:27;;;;;;;7.40;5.40;;;17.60;84.30;;;;;;4130325;28;20056;-53
2024/03/21 02:12:08;;;;;;;6.40;5.80;;;17.60;84.40;;;;;;4155375;28;20048;-59
2024/03/21 02:14:51;;;;;;;9.48;5.88;;;17.60;84.40;;;;;;4142701;28;20056;-55
2024/03/21 02:17:30;;;;;;;8.07;6.50;;;17.60;84.30;;;;;;4152057;28;20215;-53
2024/03/21 02:20:12;;;;;;;7.72;6.20;;;17.60;84.20;;;;;;4167245;28;20449;-53
2024/03/21 02:22:52;;;;;;;5.78;4.50;;;17.60;84.10;;;;;;4152592;28;20131;-51
2024/03/21 02:25:33;;;;;;;5.60;5.00;;;17.60;84.10;;;;;;4154059;28;20056;-51
2024/03/21 02:28:11;;;;;;;7.93;5.07;;;17.60;84.10;;;;;;4162942;28;20060;-52
2024/03/21 02:30:52;;;;;;;8.15;4.88;;;17.60;85.10;;;;;;4169728;28;20059;-52
2024/03/21 02:33:31;;;;;;;5.07;4.57;;;17.50;84.00;;;;;;4170077;28;20515;-52
2024/03/21 02:36:11;;;;;;;7.93;4.40;;;17.50;83.90;;;;;;4154156;28;20115;-51
2024/03/21 02:38:51;;;;;;;5.03;3.47;;;17.50;84.00;;;;;;4167759;28;20502;-53
2024/03/21 02:41:32;;;;;;;4.68;3.83;;;17.50;84.00;;;;;;4166867;28;20074;-53
2024/03/21 02:44:11;;;;;;;4.25;3.85;;;17.50;83.80;;;;;;4155997;28;20056;-53
2024/03/21 02:46:51;;;;;;;5.10;4.60;;;17.40;83.60;;;;;;4163565;28;20060;-51
2024/03/21 02:49:30;;;;;;;6.07;4.68;;;17.50;83.70;;;;;;4154672;28;20059;-53
2024/03/21 02:52:10;;;;;;;7.32;4.78;;;17.50;83.70;;;;;;4138732;28;20048;-52
2024/03/21 02:54:51;;;;;;;5.47;5.07;;;17.50;83.60;;;;;;4146802;28;20080;-52
2024/03/21 02:57:31;;;;;;;6.38;5.88;;;17.50;84.00;;;;;;4151587;28;20068;-51
2024/03/21 03:00:11;;;;;;;8.75;6.55;;;17.50;83.20;;;;;;4153481;28;20052;-52
2024/03/21 03:02:51;;;;;;;9.20;7.60;;;17.50;82.90;;;;;;4153617;28;20459;-52
2024/03/21 03:05:30;;;;;;;13.13;8.98;;;17.50;82.20;;;;;;4162494;28;20133;-53
2024/03/21 03:08:11;;;;;;;11.80;8.18;;;17.50;82.70;;;;;;4136426;28;20119;-53
2024/03/21 03:10:51;;;;;;;10.25;8.98;;;17.50;82.70;;;;;;4136538;28;20073;-54
2024/03/21 03:13:32;;;;;;;11.10;8.63;;;17.50;82.20;;;;;;4141076;28;20165;-52
2024/03/21 03:16:11;;;;;;;7.85;6.13;;;17.60;82.80;;;;;;4143817;28;20126;-52
2024/03/21 03:18:51;;;;;;;5.80;5.18;;;17.50;81.80;;;;;;4155498;28;20161;-54
2024/03/21 03:21:30;;;;;;;6.68;4.68;;;17.50;81.60;;;;;;4138231;28;20112;-51
2024/03/21 03:24:10;;;;;;;6.60;4.50;;;17.50;81.30;;;;;;4167420;28;20126;-53
2024/03/21 03:26:50;;;;;;;7.35;4.78;;;17.50;81.20;;;;;;4152159;28;20135;-52
2024/03/21 03:29:30;;;;;;;8.00;5.18;;;17.40;81.00;;;;;;4153301;28;20148;-52
2024/03/21 03:32:10;;;;;;;8.10;5.95;;;17.40;81.00;;;;;;4168984;28;20060;-54
2024/03/21 03:37:47;;;;;;;9.70;6.40;;;17.30;81.40;;;;;;4168065;28;20072;-53
2024/03/21 03:40:28;;;;;;;11.07;5.78;;;17.30;81.50;;;;;;4168993;28;20563;-54
2024/03/21 03:43:09;;;;;;;9.43;5.60;;;17.20;81.50;;;;;;4168897;28;20079;-52
2024/03/21 03:45:49;;;;;;;10.98;5.95;;;17.20;81.60;;;;;;4166251;28;20099;-51
2024/03/21 03:48:29;;;;;;;8.57;4.93;;;17.20;81.60;;;;;;4152727;28;20139;-53
2024/03/21 03:51:09;;;;;;;8.77;4.53;;;17.20;81.60;;;;;;4161154;28;20044;-54
2024/03/21 03:53:49;;;;;;;5.95;4.18;;;17.20;81.10;;;;;;4152570;28;20084;-54
2024/03/21 03:56:29;;;;;;;7.25;4.32;;;17.20;81.00;;;;;;4152114;28;20511;-53
2024/03/21 03:59:09;;;;;;;6.55;3.28;;;17.20;81.00;;;;;;4155772;28;20133;-54
2024/03/21 04:01:50;;;;;;;9.53;3.50;;;17.20;80.70;;;;;;4149557;28;20420;-52
2024/03/21 04:04:29;;;;;;;7.10;2.85;;;17.20;80.70;;;;;;4145926;28;20331;-54
2024/03/21 04:07:10;;;;;;;9.38;2.90;;;17.20;80.30;;;;;;4141855;28;20136;-54
2024/03/21 04:09:49;;;;;;;7.90;2.92;;;17.20;79.80;;;;;;4161252;28;20216;-53
2024/03/21 04:12:29;;;;;;;5.88;2.58;;;17.10;81.10;;;;;;4153960;28;20373;-52
2024/03/21 04:15:10;;;;;;;5.82;2.20;;;17.10;80.40;;;;;;4153885;28;20056;-54
2024/03/21 04:17:51;;;;;;;6.32;2.72;;;17.10;79.10;;;;;;4170302;28;20099;-50
2024/03/21 04:20:30;;;;;;;5.18;2.15;;;17.10;79.70;;;;;;4165896;28;20079;-53
2024/03/21 04:23:10;;;;;;;4.88;1.33;;;17.00;79.90;;;;;;4156966;28;20462;-53
2024/03/21 04:25:50;;;;;;;5.63;1.95;;;17.10;79.60;;;;;;4161347;28;20051;-52
2024/03/21 04:28:29;;;;;;;6.28;1.63;;;17.10;78.40;;;;;;4169630;28;20060;-53
2024/03/21 04:31:10;;;;;;;7.57;2.42;;;17.00;78.50;;;;;;4170904;28;20076;-53
2024/03/21 04:33:50;;;;;;;5.70;2.13;;;17.00;78.80;;;;;;4156684;28;20563;-54
2024/03/21 04:36:29;;;;;;;15.70;2.08;;;17.00;75.00;;;;;;4169690;28;20064;-54
2024/03/21 04:39:09;;;;;;;5.88;2.10;;;16.90;76.60;;;;;;4171664;28;20052;-51
2024/03/21 04:41:49;;;;;;;6.25;1.50;;;16.90;77.80;;;;;;4156737;28;20064;-57
2024/03/21 04:44:29;;;;;;;3.85;1.40;;;16.80;76.80;;;;;;4170922;28;20063;-54
2024/03/21 04:47:11;;;;;;;3.50;1.23;;;16.80;74.30;;;;;;4168759;28;20515;-54
2024/03/21 04:49:54;;;;;;;6.20;1.92;;;16.70;76.20;;;;;;4146991;28;20060;-53
2024/03/21 04:52:34;;;;;;;9.75;2.10;;;16.70;76.50;;;;;;4154880;28;20041;-53
2024/03/21 04:55:14;;;;;;;7.30;1.85;;;16.70;77.70;;;;;;4142950;28;20056;-55
2024/03/21 04:57:53;;;;;;;3.40;1.60;;;16.70;78.40;;;;;;4163793;28;20047;-56
2024/03/21 05:00:32;;;;;;;3.92;1.30;;;16.70;76.80;;;;;;4170925;28;20510;-55
2024/03/21 05:03:13;;;;;;;4.43;1.38;;;16.70;77.80;;;;;;4169113;28;20040;-52
2024/03/21 05:05:53;;;;;;;3.47;2.17;;;16.70;77.10;;;;;;4158797;28;20048;-52
2024/03/21 05:08:34;;;;;;;5.32;1.90;;;16.70;77.10;;;;;;4143953;28;20136;-55
2024/03/21 05:11:13;;;;;;;7.05;1.80;;;16.70;78.60;;;;;;4153017;28;20073;-54
2024/03/21 05:13:53;;;;;;;4.47;1.27;;;16.70;77.70;;;;;;4154378;28;20099;-54
2024/03/21 05:16:32;;;;;;;3.60;1.73;;;16.70;77.10;;;;;;4154519;28;20056;-55
2024/03/21 05:19:15;;;;;;;4.13;1.45;;;16.80;76.90;;;;;;4168858;28;20048;-55
2024/03/21 05:21:55;;;;;;;5.68;1.52;;;16.70;77.70;;;;;;4160919;28;20060;-55
2024/03/21 05:24:33;;;;;;;3.22;1.63;;;16.70;77.80;;;;;;4139294;28;20080;-52
2024/03/21 05:27:15;;;;;;;4.38;1.60;;;16.70;78.40;;;;;;4155531;28;20175;-53
2024/03/21 05:29:54;;;;;;;;;;;16.70;78.20;;;;;;4168566;28;20079;-53
2024/03/21 05:32:34;;;;;;;3.70;1.25;;;16.70;78.90;;;;;;4154804;28;19928;-54
2024/03/21 05:35:14;;;;;;;5.00;1.80;;;16.70;79.00;;;;;;4153723;28;20068;-52
2024/03/21 05:37:54;;;;;;;4.03;1.60;;;16.70;79.20;;;;;;4153571;28;20055;-54
2024/03/21 05:40:33;;;;;;;4.53;1.65;;;16.70;78.30;;;;;;4158231;28;20099;-51
2024/03/21 05:43:13;;;;;;;3.40;1.38;;;16.70;78.50;;;;;;4170176;28;20454;-54
2024/03/21 05:45:52;;;;;;;4.43;2.15;;;16.70;78.90;;;;;;4158232;28;20523;-52
2024/03/21 05:48:32;;;;;;;3.65;1.48;;;16.70;79.30;;;;;;4156652;28;20055;-51
2024/03/21 05:51:13;;;;;;;5.55;2.40;;;16.70;79.30;;;;;;4170202;28;20400;-54
2024/03/21 05:53:53;;;;;;;4.57;1.85;;;16.70;79.20;;;;;;4170118;28;20064;-52
2024/03/21 05:56:35;;;;;;;6.40;2.15;;;16.70;79.80;;;;;;4153497;28;20052;-51
2024/03/21 05:59:15;;;;;;;4.80;1.58;;;16.60;79.70;;;;;;4159250;28;20047;-51
2024/03/21 06:01:54;;;;;;;7.03;3.22;;;16.60;79.80;;;;;;4158900;28;20507;-50
2024/03/21 06:04:34;;;;;;;8.13;2.63;;;16.60;80.00;;;;;;4152305;28;20056;-54
2024/03/21 06:07:14;;;;;;;9.63;2.70;;;16.60;79.30;;;;;;4153673;28;20095;-51
2024/03/21 06:09:54;;;;;;;6.97;2.50;;;16.60;79.20;;;;;;4163513;28;20059;-52
2024/03/21 06:12:33;;;;;;;9.23;3.38;;;16.60;79.00;;;;;;4143515;28;20295;-51
2024/03/21 06:15:13;;;;;;;8.27;2.80;;;16.60;79.50;;;;;;4167658;28;20597;-51
2024/03/21 06:17:52;;;;;;;7.05;2.92;;;16.60;79.40;;;;;;4169334;28;20063;-51
2024/03/21 06:20:32;;;;;;;14.98;2.50;;;16.60;79.50;;;;;;4152707;28;20140;-50
2024/03/21 06:23:13;;;;;;;6.18;1.95;;;16.60;78.80;;;;;;4153333;28;20118;-52
2024/03/21 06:25:53;;;;;;;7.65;1.98;;;16.60;77.10;;;;;;4165267;28;20063;-51
2024/03/21 06:28:32;;;;;;;7.18;2.25;;;16.50;76.20;;;;;;4160317;28;20048;-55
2024/03/21 06:31:12;;;;;;;5.50;2.55;;;16.50;77.80;;;;;;4169361;28;20509;-53
2024/03/21 06:33:51;;;;;;;9.65;2.67;;;16.50;78.00;;;;;;4158484;28;20206;-54
2024/03/21 06:36:31;;;;;;;9.43;2.83;;;16.50;78.60;;;;;;4157254;28;20044;-54
2024/03/21 06:39:13;;;;;;;7.47;2.28;;;16.50;78.70;;;;;;4168845;28;20056;-50
2024/03/21 06:41:53;;;;;;;9.13;3.28;;;16.60;78.90;;;;;;4156667;28;20107;-52
2024/03/21 06:44:33;;;;;;;6.15;2.33;;;16.60;79.40;;;;;;4167472;28;20052;-50
2024/03/21 06:47:13;;;;;;;6.80;2.35;;;16.60;79.10;;;;;;4167054;28;20554;-51
2024/03/21 06:49:53;;;;;;;9.27;3.10;;;16.60;79.00;;;;;;4169269;28;20162;-51
2024/03/21 06:52:34;;;;;;;7.13;2.05;;;16.70;79.30;;;;;;4169201;28;20138;-51
2024/03/21 06:55:15;;;;;;;7.55;2.25;;;16.70;79.30;;;;;;4158343;28;20048;-51
2024/03/21 06:57:59;;;;;;;7.97;2.45;;;16.80;79.00;;;;;;4154160;28;20065;-52
2024/03/21 07:00:38;;;;;;;7.90;2.67;;;16.80;78.40;;;;;;4166019;28;20098;-50
2024/03/21 07:03:19;;;;;;;12.95;3.40;;;16.80;78.30;;;;;;4169013;28;20360;-50
2024/03/21 07:05:58;;;;;;;8.68;3.30;;;16.90;78.50;;;;;;4165295;28;20047;-53
2024/03/21 07:08:37;;;;;;;6.18;2.35;;;16.90;78.30;;;;;;4169241;28;20214;-50
2024/03/21 07:11:18;;;;;;;6.15;2.17;;;16.90;78.00;;;;;;4162159;28;20052;-50
2024/03/21 07:13:59;;;;;;;6.80;1.63;;;16.90;77.00;;;;;;4151028;28;20064;-49
2024/03/21 07:16:38;;;;;;;4.93;2.15;;;16.90;76.70;;;;;;4152696;28;20106;-52
2024/03/21 07:19:19;;;;;;;6.38;1.83;;;17.00;76.10;;;;;;4152566;28;20053;-50
2024/03/21 07:21:58;;;;;;;6.55;2.40;;;17.10;76.00;;;;;;4151177;28;20056;-51
2024/03/21 07:24:38;;;;;;;3.78;2.05;;;17.20;76.00;;;;;;4149196;28;20073;-51
2024/03/21 07:27:19;;;;;;;7.03;2.55;;;17.20;75.50;;;;;;4151773;28;20057;-50
2024/03/21 07:29:59;;;;;;;6.32;2.42;;;17.30;74.90;;;;;;4141300;28;20080;-50
2024/03/21 07:32:38;;;;;;;4.47;1.95;;;17.30;74.20;;;;;;4153324;28;20099;-52
2024/03/21 07:35:19;;;;;;;6.97;2.67;;;17.40;73.80;;;;;;4171038;28;20072;-53
2024/03/21 07:37:58;;;;;;;5.95;1.50;;;17.40;72.90;;;;;;4171388;28;20072;-52
2024/03/21 07:40:38;;;;;;;5.10;2.40;;;17.30;73.00;;;;;;4159157;28;20048;-55
2024/03/21 07:43:18;;;;;;;3.75;1.92;;;17.30;73.40;;;;;;4171578;28;20060;-55
2024/03/21 07:45:58;;;;;;;6.78;1.95;;;17.20;73.50;;;;;;4164945;28;20055;-53
2024/03/21 07:48:37;;;;;;;6.75;3.42;;;17.20;73.40;;;;;;4150522;28;20116;-52
2024/03/21 07:51:17;;;;;;;3.67;1.90;;;17.20;74.60;;;;;;4162017;28;20060;-54
2024/03/21 07:53:57;;;;;;;5.15;2.10;;;17.20;73.80;;;;;;4171004;28;20471;-54
2024/03/21 07:56:38;;;;;;;8.40;2.45;;;17.10;73.40;;;;;;4170481;28;20098;-54
2024/03/21 07:59:19;;;;;;;9.30;2.45;;;17.10;73.20;;;;;;4155515;28;20056;-53
2024/03/21 08:01:59;;;;;;;7.13;2.60;;;17.00;73.10;;;;;;4159603;28;20172;-53
2024/03/21 08:04:38;;;;;;;7.05;1.90;;;17.00;72.80;;;;;;4154203;28;20503;-55
2024/03/21 08:07:18;;;;;;;11.35;2.80;;;16.90;72.60;;;;;;4154629;28;20052;-52
2024/03/21 08:09:58;;;;;;;6.38;2.45;;;16.80;72.90;;;;;;4168728;28;20502;-52
2024/03/21 08:12:38;;;;;;;10.00;1.83;;;16.80;74.00;;;;;;4151952;28;20056;-52
2024/03/21 08:15:19;;;;;;;7.25;2.30;;;16.80;74.40;;;;;;4170665;28;20103;-51
2024/03/21 08:17:58;;;;;;;9.85;2.95;;;16.70;74.50;;;;;;4157943;28;20056;-51
2024/03/21 08:20:38;;;;;;;6.43;2.42;;;16.80;74.70;;;;;;4160582;28;20103;-52
2024/03/21 08:23:19;;;;;;;8.15;2.30;;;16.80;74.20;;;;;;4170394;28;20510;-54
2024/03/21 08:26:02;;;;;;;7.53;2.78;;;16.80;73.80;;;;;;4141753;28;20044;-54
2024/03/21 08:28:41;;;;;;;7.70;2.05;;;16.80;74.30;;;;;;4154844;28;20044;-55
2024/03/21 08:31:22;;;;;;;8.45;2.40;;;16.80;75.60;;;;;;4147155;28;20056;-55
2024/03/21 08:34:02;;;;;;;7.13;2.22;;;16.80;75.90;;;;;;4165186;28;20052;-54
2024/03/21 08:36:40;;;;;;;5.18;1.70;;;16.80;77.30;;;;;;4171889;28;20455;-51
2024/03/21 08:39:20;;;;;;;7.65;2.35;;;16.80;75.80;;;;;;4171133;28;20052;-51
2024/03/21 08:41:59;;;;;;;4.22;1.83;;;16.80;74.90;;;;;;4168560;28;20066;-57
2024/03/21 08:44:39;;;;;;;8.02;2.60;;;16.80;75.40;;;;;;4157619;28;20106;-54
2024/03/21 08:47:19;;;;;;;8.93;2.63;;;16.80;75.80;;;;;;4152963;28;20173;-53
2024/03/21 08:50:00;;;;;;;8.77;2.43;;;16.80;75.60;;;;;;4138408;28;20089;-50
2024/03/21 08:52:39;;;;;;;7.03;2.13;;;16.80;76.10;;;;;;4138280;28;20069;-52
2024/03/21 08:55:19;;;;;;;5.53;2.40;;;16.80;75.10;;;;;;4152224;28;20051;-53
2024/03/21 08:57:58;;;;;;;3.40;2.28;;;16.90;75.20;;;;;;4162474;28;20036;-53
2024/03/21 09:00:40;;;;;;;5.93;1.98;;;16.80;75.00;;;;;;4152702;28;20060;-52
2024/03/21 09:03:21;;;;;;;7.22;3.03;;;16.80;74.60;;;;;;4156017;28;20052;-51
2024/03/21 09:06:01;;;;;;;10.85;2.90;;;16.80;74.50;;;;;;4171092;28;20052;-52
2024/03/21 09:08:40;;;;;;;4.22;1.80;;;16.80;74.90;;;;;;4170486;28;20052;-53
2024/03/21 09:11:20;;;;;;;5.63;2.80;;;16.80;74.60;;;;;;4166400;28;20056;-51
2024/03/21 09:14:01;;;;;;;4.05;2.00;;;16.80;74.40;;;;;;4169412;28;20076;-52
2024/03/21 09:16:42;;;;;;;2.55;1.92;;;16.70;74.10;;;;;;4168518;28;20243;-54
2024/03/21 09:19:23;;;;;;;7.18;2.05;;;16.70;74.20;;;;;;4151220;28;20459;-51
2024/03/21 09:22:03;;;;;;;5.70;2.20;;;16.70;74.20;;;;;;4158129;28;20114;-51
2024/03/21 09:24:44;;;;;;;7.27;3.13;;;16.70;74.20;;;;;;4158882;28;20140;-55
2024/03/21 09:27:24;;;;;;;5.33;1.77;;;16.60;74.20;;;;;;4170140;28;20072;-55
2024/03/21 09:30:03;;;;;;;3.47;1.92;;;16.60;74.30;;;;;;4169728;28;20055;-56
2024/03/21 09:32:45;;;;;;;6.47;2.22;;;16.60;74.50;;;;;;4154942;28;20488;-54
2024/03/21 09:35:25;;;;;;;;;;;16.60;75.60;;;;;;4169346;28;20411;-55
2024/03/21 09:38:05;;;;;;;5.80;2.38;;;16.60;75.00;;;;;;4151226;28;19975;-55
2024/03/21 09:40:45;;;;;;;5.30;1.90;;;16.50;75.10;;;;;;4147059;28;20135;-54
2024/03/21 09:43:25;;;;;;;6.18;2.03;;;16.50;74.70;;;;;;4152874;28;20464;-50
2024/03/21 09:46:04;;;;;;;7.13;2.10;;;16.50;74.70;;;;;;4161978;28;20519;-51
2024/03/21 09:48:45;;;;;;;6.50;1.77;;;16.50;74.90;;;;;;4169231;28;20578;-51
2024/03/21 09:51:27;;;;;;;7.17;2.47;;;16.50;74.90;;;;;;4151490;28;20480;-52
2024/03/21 09:54:11;;;;;;;3.65;1.80;;;16.50;74.60;;;;;;4150444;28;20360;-55
2024/03/21 09:56:53;;;;;;;4.18;2.10;;;16.50;74.60;;;;;;4136987;28;20103;-55
2024/03/21 09:59:33;;;;;;;4.60;1.83;;;16.50;74.90;;;;;;4151768;28;20052;-50
2024/03/21 10:02:12;;;;;;;3.38;2.08;;;16.50;74.90;;;;;;4153389;28;20072;-53
2024/03/21 10:04:53;;;;;;;3.75;1.60;;;16.50;75.60;;;;;;4137341;28;20061;-50
2024/03/21 10:07:36;;;;;;;3.85;1.83;;;16.40;74.60;;;;;;4152886;28;20455;-52
2024/03/21 10:10:17;;;;;;;4.18;2.30;;;16.40;74.30;;;;;;4151908;28;20044;-52
2024/03/21 10:12:56;;;;;;;4.97;2.10;;;16.40;74.60;;;;;;4152185;28;20052;-54
2024/03/21 10:15:37;;;;;;;4.07;1.63;;;16.40;74.70;;;;;;4153958;28;20079;-55
2024/03/21 10:18:16;;;;;;;3.78;1.75;;;16.40;74.60;;;;;;4153227;28;20095;-54
2024/03/21 10:20:56;;;;;;;4.13;2.20;;;16.40;74.70;;;;;;4140253;28;20076;-54
2024/03/21 10:23:37;;;;;;;7.50;1.92;;;16.40;74.40;;;;;;4158326;28;20052;-54
2024/03/21 10:26:18;;;;;;;9.57;2.28;;;16.40;74.30;;;;;;4152994;28;20080;-55
2024/03/21 10:28:57;;;;;;;6.55;2.30;;;16.40;74.50;;;;;;4152986;28;20102;-54
2024/03/21 10:31:40;;;;;;;3.63;2.05;;;16.30;74.60;;;;;;4151394;28;20060;-52
2024/03/21 10:34:23;;;;;;;3.65;1.45;;;16.30;74.40;;;;;;4154596;28;20049;-55
2024/03/21 10:37:03;;;;;;;5.88;2.15;;;16.30;74.30;;;;;;4169395;28;20131;-52
2024/03/21 10:39:44;;;;;;;3.65;1.88;;;16.40;74.60;;;;;;4170110;28;20075;-55
2024/03/21 10:42:28;;;;;;;7.20;2.43;;;16.30;75.10;;;;;;4160330;28;20136;-54
2024/03/21 10:45:12;;;;;;;5.55;2.15;;;16.40;75.10;;;;;;4136457;28;20053;-54
2024/03/21 10:47:53;;;;;;;6.20;3.10;;;16.30;75.20;;;;;;4139331;28;20060;-52
2024/03/21 10:50:32;;;;;;;5.13;1.95;;;16.30;75.40;;;;;;4135268;28;20515;-54
2024/03/21 10:53:20;;;;;;;9.05;3.65;;;16.40;75.50;;;;;;4160089;28;20075;-52
2024/03/21 10:56:04;;;;;;;3.08;2.15;;;16.30;74.90;;;;;;4153382;28;20130;-53
2024/03/21 10:58:44;;;;;;;6.28;2.30;;;16.40;74.80;;;;;;4169224;28;20099;-53
2024/03/21 11:01:36;;;;;;;6.45;2.15;;;16.40;74.60;;;;;;4167770;28;20187;-51
2024/03/21 11:04:16;;;;;;;4.30;2.65;;;16.40;74.10;;;;;;4166631;28;20071;-51
2024/03/21 11:06:58;;;;;;;6.53;2.55;;;16.30;75.50;;;;;;4163814;28;20169;-55
2024/03/21 11:09:38;;;;;;;9.65;2.85;;;16.30;74.60;;;;;;4167567;28;20130;-53
2024/03/21 11:12:19;;;;;;;4.57;2.58;;;16.30;74.70;;;;;;4168937;28;20051;-54
2024/03/21 11:15:00;;;;;;;6.35;2.33;;;16.30;74.10;;;;;;4169259;28;20048;-53
2024/03/21 11:17:39;;;;;;;7.53;2.85;;;16.30;74.60;;;;;;4150774;28;20049;-51
2024/03/21 11:20:19;;;;;;;6.20;2.72;;;16.20;74.70;;;;;;4151111;28;20075;-52
2024/03/21 11:22:59;;;;;;;13.00;3.05;;;16.20;74.60;;;;;;4141099;28;20052;-51
2024/03/21 11:25:39;;;;;;;5.93;3.10;;;16.20;74.70;;;;;;4167395;28;20124;-52
2024/03/21 11:28:20;;;;;;;4.00;2.30;;;16.20;74.70;;;;;;4156811;28;20049;-53
2024/03/21 11:31:02;;;;;;;7.15;2.63;;;16.20;74.90;;;;;;4166322;28;20052;-53
2024/03/21 11:33:41;;;;;;;2.70;2.50;;;16.20;75.00;;;;;;4167716;28;20060;-55
2024/03/21 11:36:22;;;;;;;4.38;2.33;;;16.20;75.10;;;;;;4151839;28;20052;-55
2024/03/21 11:39:02;;;;;;;5.35;2.75;;;16.20;75.00;;;;;;4157666;28;20194;-53
2024/03/21 11:41:43;;;;;;;6.22;2.65;;;16.20;75.00;;;;;;4168688;28;20190;-54
2024/03/21 11:44:25;;;;;;;5.25;2.80;;;16.20;74.90;;;;;;4152876;28;20083;-53
2024/03/21 11:47:05;;;;;;;4.97;3.50;;;16.20;75.00;;;;;;4157586;28;20522;-52
2024/03/21 11:49:48;;;;;;;5.22;2.17;;;16.20;75.00;;;;;;4167991;28;20059;-51
2024/03/21 11:52:28;;;;;;;4.43;1.98;;;16.20;74.70;;;;;;4152784;28;20115;-51
2024/03/21 11:55:08;;;;;;;3.08;2.30;;;16.20;74.90;;;;;;4146503;28;20179;-54
2024/03/21 11:57:49;;;;;;;7.68;2.42;;;16.20;74.80;;;;;;4148230;28;20110;-52
2024/03/21 12:00:29;;;;;;;3.85;2.20;;;16.10;75.00;;;;;;4155831;28;20579;-54
2024/03/21 12:03:11;;;;;;;5.33;2.13;;;16.10;74.80;;;;;;4153275;28;20079;-52
2024/03/21 12:05:50;;;;;;;10.70;2.80;;;16.10;74.70;;;;;;4146443;28;20072;-51
2024/03/21 12:08:30;;;;;;;6.40;3.15;;;16.20;74.90;;;;;;4151805;28;20106;-52
2024/03/21 12:11:13;;;;;;;5.78;2.55;;;16.10;74.60;;;;;;4169173;28;20052;-58
2024/03/21 12:13:53;;;;;;;4.25;2.70;;;16.20;74.50;;;;;;4168769;28;20063;-53
2024/03/21 12:16:33;;;;;;;3.78;2.60;;;16.10;74.50;;;;;;4157300;28;20053;-52
2024/03/21 12:19:13;;;;;;;10.63;2.60;;;16.10;75.20;;;;;;4153513;28;20057;-54
2024/03/21 12:21:52;;;;;;;5.10;2.35;;;16.20;75.70;;;;;;4156038;28;20064;-53
2024/03/21 12:24:32;;;;;;;5.03;2.28;;;16.20;75.80;;;;;;4160660;28;20056;-50
2024/03/21 12:27:11;;;;;;;8.35;2.72;;;16.20;76.00;;;;;;4155979;28;20103;-49
2024/03/21 12:29:51;;;;;;;4.47;2.00;;;16.30;76.10;;;;;;4154812;28;20064;-53
2024/03/21 12:32:32;;;;;;;3.10;2.08;;;16.30;76.40;;;;;;4156729;28;20083;-52
2024/03/21 12:35:11;;;;;;;6.30;2.50;;;16.30;76.10;;;;;;4171447;28;20095;-53
2024/03/21 12:37:56;;;;;;;4.10;1.90;;;16.40;75.90;;;;;;4163026;28;20140;-50
2024/03/21 12:40:37;;;;;;;7.97;3.42;;;16.40;75.80;;;;;;4154983;28;20132;-54
2024/03/21 12:43:16;;;;;;;5.45;2.30;;;16.40;76.30;;;;;;4164668;28;20102;-51
2024/03/21 12:45:56;;;;;;;6.55;2.53;;;16.40;76.40;;;;;;4170676;28;20056;-51
2024/03/21 12:48:37;;;;;;;4.40;2.78;;;16.50;76.40;;;;;;4155036;28;20201;-50
2024/03/21 12:51:18;;;;;;;5.97;2.08;;;16.60;76.50;;;;;;4171225;28;20056;-51
2024/03/21 12:53:57;;;;;;;6.45;2.72;;;16.60;76.70;;;;;;4154223;28;20057;-52
2024/03/21 12:56:37;;;;;;;3.80;2.15;;;16.60;76.60;;;;;;4155257;28;20072;-55
2024/03/21 12:59:16;;;;;;;4.57;2.28;;;16.60;76.20;;;;;;4166589;28;20163;-50
2024/03/21 13:01:56;;;;;;;4.78;2.60;;;16.70;76.40;;;;;;4170153;28;20055;-49
2024/03/21 13:04:37;;;;;;;4.75;2.60;;;16.70;76.20;;;;;;4170360;28;20495;-50
2024/03/21 13:07:18;;;;;;;3.58;2.40;;;16.70;76.20;;;;;;4147534;28;20500;-53
2024/03/21 13:09:57;;;;;;;8.05;2.85;;;16.80;76.30;;;;;;4155811;28;20067;-49
2024/03/21 13:12:37;;;;;;;8.18;3.28;;;16.80;76.50;;;;;;4149684;28;20083;-53
2024/03/21 13:15:16;;;;;;;8.75;2.95;;;16.80;77.00;;;;;;4136750;28;20095;-51
2024/03/21 13:17:56;;;;;;;7.63;3.40;;;16.80;75.90;;;;;;4164306;28;20102;-50
2024/03/21 13:20:36;;;;;;;8.40;3.70;;;16.80;75.60;;;;;;4168334;28;20118;-52
2024/03/21 13:23:17;;;;;;;5.40;3.03;;;16.80;75.50;;;;;;4154504;28;20781;-50
2024/03/21 13:25:55;;;;;;;5.50;2.95;;;16.90;75.80;;;;;;4154334;28;20088;-49
2024/03/21 13:28:36;;;;;;;2.67;2.25;;;16.90;75.50;;;;;;4167503;28;20047;-50
2024/03/21 13:31:15;;;;;;;6.22;2.53;;;16.90;75.50;;;;;;4168930;28;20056;-51
2024/03/21 13:33:55;;;;;;;5.65;2.60;;;16.90;75.60;;;;;;4166637;28;20056;-51
2024/03/21 13:36:35;;;;;;;5.53;2.08;;;16.90;76.00;;;;;;4162886;28;20056;-56
2024/03/21 13:39:15;;;;;;;3.70;1.98;;;17.00;76.20;;;;;;4156963;28;20060;-55
2024/03/21 13:41:55;;;;;;;3.20;1.85;;;17.00;76.20;;;;;;4169607;28;20126;-51
2024/03/21 13:44:36;;;;;;;3.88;2.05;;;17.00;76.70;;;;;;4145366;28;20121;-51
2024/03/21 13:47:15;;;;;;;3.58;1.80;;;17.00;75.60;;;;;;4139060;28;20111;-51
2024/03/21 13:49:55;;;;;;;5.35;2.17;;;16.90;75.50;;;;;;4138980;28;20138;-51
2024/03/21 13:52:37;;;;;;;4.70;2.70;;;16.90;75.80;;;;;;4155295;28;20111;-50
2024/03/21 13:55:16;;;;;;;7.00;1.90;;;16.90;75.90;;;;;;4152710;28;20128;-50
2024/03/21 13:57:56;;;;;;;5.78;2.30;;;16.90;75.70;;;;;;4137420;28;20520;-50